createdAt,value
2019-05-18T00:00:54.119Z,24.72
2019-05-18T00:03:02.014Z,24.07
2019-05-18T00:05:10.344Z,25.70
2019-05-18T00:07:18.136Z,24.40
2019-05-18T00:09:26.035Z,24.20
2019-05-18T00:11:34.325Z,24.47
2019-05-18T00:13:42.279Z,24.75
2019-05-18T00:15:51.308Z,25.30
2019-05-18T00:17:59.231Z,24.45
2019-05-18T00:20:11.105Z,24.75
2019-05-18T00:22:18.986Z,24.00
2019-05-18T00:24:26.903Z,23.38
2019-05-18T00:26:34.789Z,24.18
2019-05-18T00:28:43.814Z,25.00
2019-05-18T00:30:52.046Z,23.52
2019-05-18T00:32:59.985Z,24.47
2019-05-18T00:35:09.705Z,23.12
2019-05-18T00:37:19.074Z,23.30
2019-05-18T00:39:27.137Z,24.90
2019-05-18T00:41:36.128Z,26.75
2019-05-18T00:43:44.038Z,24.15
2019-05-18T00:45:52.027Z,26.33
2019-05-18T00:48:00.559Z,24.77
2019-05-18T00:50:09.076Z,24.37
2019-05-18T00:52:16.931Z,28.00
2019-05-18T00:54:24.821Z,33.88
2019-05-18T00:56:32.744Z,34.75
2019-05-18T00:58:40.702Z,24.65
2019-05-18T01:00:48.591Z,27.27
2019-05-18T01:02:57.022Z,27.25
2019-05-18T01:05:06.233Z,21.15
2019-05-18T01:07:14.092Z,33.30
2019-05-18T01:09:22.033Z,26.17
2019-05-18T01:11:30.087Z,21.02
2019-05-18T01:13:38.108Z,20.50
2019-05-18T01:15:46.028Z,20.75
2019-05-18T01:17:57.394Z,28.17
2019-05-18T01:20:03.742Z,52.60
2019-05-18T01:22:12.699Z,47.43
2019-05-18T01:24:20.686Z,46.75
2019-05-18T01:26:28.572Z,25.92
2019-05-18T01:28:36.603Z,23.57
2019-05-18T01:30:46.375Z,23.50
2019-05-18T01:32:54.365Z,24.27
2019-05-18T01:35:02.307Z,22.37
2019-05-18T01:37:10.327Z,23.47
2019-05-18T01:39:18.344Z,24.77
2019-05-18T01:41:26.378Z,32.78
2019-05-18T01:43:34.270Z,28.50
2019-05-18T01:45:42.159Z,24.37
2019-05-18T01:47:50.085Z,23.90
2019-05-18T01:49:58.084Z,22.87
2019-05-18T01:52:06.066Z,23.95
2019-05-18T01:54:15.666Z,23.07
2019-05-18T01:56:23.883Z,22.07
2019-05-18T01:58:33.877Z,22.70
2019-05-18T02:00:41.821Z,21.30
2019-05-18T02:02:51.338Z,21.65
2019-05-18T02:04:59.237Z,20.72
2019-05-18T02:07:07.228Z,21.37
2019-05-18T02:09:15.162Z,19.87
2019-05-18T02:11:23.224Z,20.20
2019-05-18T02:13:31.212Z,18.98
2019-05-18T02:15:39.104Z,18.27
2019-05-18T02:17:47.062Z,18.73
2019-05-18T02:19:54.996Z,19.12
2019-05-18T02:22:02.955Z,19.30
2019-05-18T02:24:10.980Z,18.55
2019-05-18T02:26:18.945Z,18.75
2019-05-18T02:28:28.241Z,18.60
2019-05-18T02:30:36.474Z,17.75
2019-05-18T02:32:44.412Z,17.32
2019-05-18T02:34:52.302Z,17.25
2019-05-18T02:37:00.263Z,16.73
2019-05-18T02:39:09.592Z,16.75
2019-05-18T02:41:18.043Z,17.07
2019-05-18T02:43:25.929Z,17.07
2019-05-18T02:45:34.908Z,17.48
2019-05-18T02:47:42.806Z,18.12
2019-05-18T02:49:50.705Z,18.32
2019-05-18T02:51:58.714Z,18.87
2019-05-18T02:54:06.661Z,18.52
2019-05-18T02:56:14.558Z,18.10
2019-05-18T02:58:22.475Z,18.32
2019-05-18T03:00:31.268Z,18.62
2019-05-18T03:02:39.160Z,18.32
2019-05-18T03:04:47.231Z,17.57
2019-05-18T03:06:56.020Z,17.70
2019-05-18T03:09:05.755Z,18.52
2019-05-18T03:11:13.645Z,19.15
2019-05-18T03:13:22.033Z,19.30
2019-05-18T03:15:30.160Z,19.57
2019-05-18T03:17:38.202Z,19.95
2019-05-18T03:19:46.157Z,18.90
2019-05-18T03:21:54.143Z,19.45
2019-05-18T03:24:02.142Z,19.27
2019-05-18T03:26:10.030Z,19.45
2019-05-18T03:28:17.927Z,18.62
2019-05-18T03:30:25.909Z,20.12
2019-05-18T03:32:33.817Z,19.73
2019-05-18T03:34:41.706Z,20.25
2019-05-18T03:36:49.642Z,20.85
2019-05-18T03:38:58.006Z,20.57
2019-05-18T03:41:06.076Z,21.00
2019-05-18T03:43:13.990Z,22.55
2019-05-18T03:45:21.957Z,23.25
2019-05-18T03:47:29.913Z,25.72
2019-05-18T03:49:37.924Z,26.30
2019-05-18T03:51:45.989Z,24.82
2019-05-18T03:53:54.083Z,21.87
2019-05-18T03:56:02.200Z,19.20
2019-05-18T03:58:10.183Z,17.00
2019-05-18T04:00:19.653Z,17.45
2019-05-18T04:02:28.194Z,15.25
2019-05-18T04:04:36.081Z,16.30
2019-05-18T04:06:43.972Z,15.45
2019-05-18T04:08:51.994Z,14.68
2019-05-18T04:10:59.945Z,14.25
2019-05-18T04:13:08.894Z,14.93
2019-05-18T04:15:17.053Z,14.50
2019-05-18T04:17:25.048Z,14.35
2019-05-18T04:19:45.810Z,14.53
2019-05-18T04:21:43.823Z,13.55
2019-05-18T04:23:51.712Z,14.85
2019-05-18T04:25:59.602Z,14.35
2019-05-18T04:28:07.620Z,14.60
2019-05-18T04:30:15.961Z,14.18
2019-05-18T04:32:23.917Z,13.40
2019-05-18T04:34:31.833Z,12.85
2019-05-18T04:36:39.785Z,12.70
2019-05-18T04:38:47.588Z,12.13
2019-05-18T04:40:55.511Z,13.80
2019-05-18T04:43:03.406Z,14.07
2019-05-18T04:45:11.530Z,14.18
2019-05-18T04:47:19.571Z,17.42
2019-05-18T04:49:27.655Z,16.07
2019-05-18T04:51:35.646Z,15.95
2019-05-18T04:53:43.577Z,15.60
2019-05-18T04:55:51.471Z,16.80
2019-05-18T04:58:00.834Z,15.50
2019-05-18T05:00:10.288Z,15.90
2019-05-18T05:02:18.572Z,15.08
2019-05-18T05:04:27.267Z,14.33
2019-05-18T05:06:35.688Z,13.72
2019-05-18T05:08:44.156Z,11.22
2019-05-18T05:10:52.547Z,11.90
2019-05-18T05:13:01.515Z,11.40
2019-05-18T05:15:10.155Z,11.28
2019-05-18T05:17:18.534Z,11.75
2019-05-18T05:19:26.452Z,12.40
2019-05-18T05:21:36.350Z,13.03
2019-05-18T05:23:44.615Z,13.38
2019-05-18T05:25:52.937Z,13.00
2019-05-18T05:28:01.396Z,14.20
2019-05-18T05:30:10.197Z,12.47
2019-05-18T05:32:18.197Z,12.28
2019-05-18T05:34:26.102Z,12.33
2019-05-18T05:36:34.376Z,11.78
2019-05-18T05:38:42.490Z,11.90
2019-05-18T05:40:50.954Z,11.05
2019-05-18T05:42:58.967Z,11.53
2019-05-18T05:45:07.875Z,10.95
2019-05-18T05:47:16.031Z,11.18
2019-05-18T05:49:23.924Z,11.50
2019-05-18T05:51:31.935Z,11.30
2019-05-18T05:53:39.927Z,10.65
2019-05-18T05:55:47.825Z,11.35
2019-05-18T05:57:55.954Z,10.00
2019-05-18T06:00:06.234Z,10.55
2019-05-18T06:02:14.526Z,10.38
2019-05-18T06:04:22.442Z,13.03
2019-05-18T06:06:31.398Z,13.68
2019-05-18T06:08:39.793Z,11.80
2019-05-18T06:10:48.429Z,12.47
2019-05-18T06:12:56.844Z,12.58
2019-05-18T06:15:07.153Z,10.28
2019-05-18T06:17:15.580Z,11.30
2019-05-18T06:19:23.910Z,12.07
2019-05-18T06:21:32.789Z,11.57
2019-05-18T06:23:41.212Z,12.03
2019-05-18T06:25:49.603Z,11.60
2019-05-18T06:27:57.897Z,11.35
2019-05-18T06:30:08.441Z,11.95
2019-05-18T06:32:16.335Z,12.20
2019-05-18T06:34:24.398Z,10.93
2019-05-18T06:36:32.617Z,10.32
2019-05-18T06:38:41.542Z,10.95
2019-05-18T06:40:49.478Z,11.73
2019-05-18T06:42:57.798Z,11.22
2019-05-18T06:45:10.138Z,9.65
2019-05-18T06:47:18.088Z,7.67
2019-05-18T06:49:26.100Z,8.30
2019-05-18T06:51:33.976Z,8.13
2019-05-18T06:53:42.354Z,8.50
2019-05-18T06:55:52.103Z,8.13
2019-05-18T06:58:01.099Z,7.83
2019-05-18T07:00:11.426Z,7.75
2019-05-18T07:02:19.326Z,8.78
2019-05-18T07:04:27.275Z,8.33
2019-05-18T07:06:36.308Z,8.05
2019-05-18T07:08:44.695Z,7.50
2019-05-18T07:10:53.558Z,7.92
2019-05-18T07:13:01.956Z,7.85
2019-05-18T07:15:10.758Z,8.08
2019-05-18T07:17:19.081Z,6.42
2019-05-18T07:19:27.237Z,7.55
2019-05-18T07:21:35.547Z,7.35
2019-05-18T07:23:44.007Z,6.75
2019-05-18T07:25:52.438Z,7.47
2019-05-18T07:28:00.546Z,7.87
2019-05-18T07:30:21.697Z,6.83
2019-05-18T07:32:29.981Z,7.40
2019-05-18T07:34:37.990Z,7.10
2019-05-18T07:36:47.432Z,7.10
2019-05-18T07:38:55.410Z,7.22
2019-05-18T07:41:03.626Z,7.35
2019-05-18T07:43:12.011Z,6.22
2019-05-18T07:45:20.781Z,6.42
2019-05-18T07:47:28.938Z,6.53
2019-05-18T07:49:36.918Z,7.12
2019-05-18T07:51:44.806Z,6.90
2019-05-18T07:53:52.710Z,6.03
2019-05-18T07:56:00.752Z,6.00
2019-05-18T07:58:09.352Z,5.78
2019-05-18T08:00:17.596Z,6.35
2019-05-18T08:02:25.484Z,6.20
2019-05-18T08:04:33.535Z,5.58
2019-05-18T08:06:41.461Z,5.80
2019-05-18T08:08:50.892Z,6.33
2019-05-18T08:10:58.890Z,6.15
2019-05-18T08:13:08.342Z,5.45
2019-05-18T08:15:16.976Z,5.65
2019-05-18T08:17:25.260Z,16.27
2019-05-18T08:19:34.240Z,7.40
2019-05-18T08:21:52.627Z,10.25
2019-05-18T08:23:52.397Z,6.00
2019-05-18T08:26:00.275Z,5.72
2019-05-18T08:28:09.276Z,6.15
2019-05-18T08:30:17.220Z,5.75
2019-05-18T08:32:25.141Z,6.30
2019-05-18T08:34:33.141Z,13.62
2019-05-18T08:36:42.465Z,12.55
2019-05-18T08:38:50.679Z,6.20
2019-05-18T08:40:58.858Z,6.20
2019-05-18T08:43:07.242Z,6.47
2019-05-18T08:45:17.047Z,6.85
2019-05-18T08:47:25.909Z,6.20
2019-05-18T08:49:33.979Z,5.95
2019-05-18T08:51:42.875Z,12.28
2019-05-18T08:53:51.248Z,6.65
2019-05-18T08:56:00.107Z,6.87
2019-05-18T08:58:08.646Z,6.17
2019-05-18T09:00:17.200Z,6.53
2019-05-18T09:02:25.484Z,7.12
2019-05-18T09:04:33.843Z,7.17
2019-05-18T09:06:43.117Z,6.47
2019-05-18T09:08:51.099Z,6.10
2019-05-18T09:10:59.178Z,5.75
2019-05-18T09:13:07.064Z,6.67
2019-05-18T09:15:15.972Z,10.05
2019-05-18T09:17:23.958Z,6.70
2019-05-18T09:19:32.327Z,7.67
2019-05-18T09:21:40.510Z,20.90
2019-05-18T09:23:51.808Z,8.83
2019-05-18T09:26:00.110Z,6.30
2019-05-18T09:28:08.399Z,7.78
2019-05-18T09:30:17.212Z,7.10
2019-05-18T09:32:25.091Z,6.83
2019-05-18T09:34:32.983Z,7.12
2019-05-18T09:36:42.484Z,7.03
2019-05-18T09:38:51.359Z,6.87
2019-05-18T09:40:59.367Z,6.90
2019-05-18T09:43:07.410Z,6.25
2019-05-18T09:45:17.827Z,6.25
2019-05-18T09:47:25.603Z,5.95
2019-05-18T09:49:33.777Z,6.20
2019-05-18T09:51:43.367Z,8.10
2019-05-18T09:53:52.239Z,7.70
2019-05-18T09:56:00.300Z,6.17
2019-05-18T09:58:08.710Z,7.83
2019-05-18T10:00:18.722Z,6.17
2019-05-18T10:02:27.001Z,6.80
2019-05-18T10:04:34.466Z,6.33
2019-05-18T10:06:40.938Z,7.80
2019-05-18T10:08:49.210Z,6.53
2019-05-18T10:10:57.191Z,6.03
2019-05-18T10:13:05.218Z,6.45
2019-05-18T10:15:13.802Z,6.15
2019-05-18T10:17:22.614Z,6.58
2019-05-18T10:19:30.549Z,6.78
2019-05-18T10:21:38.708Z,7.47
2019-05-18T10:23:46.765Z,6.03
2019-05-18T10:25:55.024Z,6.22
2019-05-18T10:28:03.454Z,5.95
2019-05-18T10:30:12.404Z,5.15
2019-05-18T10:32:20.785Z,6.25
2019-05-18T10:34:29.720Z,5.83
2019-05-18T10:36:37.708Z,6.97
2019-05-18T10:38:45.681Z,13.45
2019-05-18T10:40:53.587Z,8.83
2019-05-18T10:43:02.042Z,6.62
2019-05-18T10:45:11.232Z,7.55
2019-05-18T10:47:19.505Z,7.50
2019-05-18T10:49:27.744Z,5.75
2019-05-18T10:51:35.618Z,5.62
2019-05-18T10:53:43.762Z,8.18
2019-05-18T10:55:51.739Z,5.80
2019-05-18T10:57:59.792Z,6.35
2019-05-18T11:00:12.348Z,5.92
2019-05-18T11:02:20.411Z,6.37
2019-05-18T11:04:28.386Z,7.22
2019-05-18T11:06:39.169Z,7.00
2019-05-18T11:08:47.208Z,6.53
2019-05-18T11:10:56.163Z,6.78
2019-05-18T11:13:04.343Z,4.90
2019-05-18T11:15:13.989Z,6.30
2019-05-18T11:17:22.405Z,5.53
2019-05-18T11:19:30.337Z,4.90
2019-05-18T11:21:38.218Z,4.72
2019-05-18T11:23:48.129Z,5.37
2019-05-18T11:25:56.174Z,4.97
2019-05-18T11:28:04.441Z,5.62
2019-05-18T11:30:14.723Z,5.58
2019-05-18T11:32:23.003Z,5.72
2019-05-18T11:34:30.890Z,5.80
2019-05-18T11:36:38.766Z,5.55
2019-05-18T11:38:46.679Z,5.33
2019-05-18T11:40:54.730Z,6.10
2019-05-18T11:43:04.398Z,6.10
2019-05-18T11:45:16.834Z,6.15
2019-05-18T11:47:27.901Z,5.70
2019-05-18T11:49:37.102Z,5.87
2019-05-18T11:51:45.600Z,6.20
2019-05-18T11:53:58.411Z,5.97
2019-05-18T11:56:03.273Z,5.42
2019-05-18T11:58:11.345Z,6.28
2019-05-18T12:00:19.826Z,5.60
2019-05-18T12:02:27.710Z,5.67
2019-05-18T12:04:36.603Z,4.70
2019-05-18T12:06:44.577Z,4.10
2019-05-18T12:08:52.451Z,6.87
2019-05-18T12:11:00.435Z,4.92
2019-05-18T12:13:08.780Z,4.85
2019-05-18T12:15:19.252Z,11.45
2019-05-18T12:17:27.153Z,4.90
2019-05-18T12:19:36.300Z,7.33
2019-05-18T12:21:44.284Z,5.22
2019-05-18T12:23:52.294Z,4.97
2019-05-18T12:26:01.169Z,5.65
2019-05-18T12:28:09.433Z,4.87
2019-05-18T12:30:20.342Z,4.75
2019-05-18T12:32:30.067Z,5.10
2019-05-18T12:34:38.364Z,4.78
2019-05-18T12:36:46.778Z,4.75
2019-05-18T12:38:56.747Z,4.78
2019-05-18T12:41:07.517Z,4.67
2019-05-18T12:43:15.445Z,4.60
2019-05-18T12:45:24.670Z,5.40
2019-05-18T12:47:32.619Z,5.53
2019-05-18T12:49:40.700Z,5.08
2019-05-18T12:51:49.652Z,5.40
2019-05-18T12:53:57.782Z,5.65
2019-05-18T12:56:05.838Z,5.70
2019-05-18T12:58:15.093Z,5.80
2019-05-18T13:00:24.482Z,5.35
2019-05-18T13:02:32.710Z,5.45
2019-05-18T13:04:41.939Z,5.30
2019-05-18T13:06:50.360Z,5.72
2019-05-18T13:08:58.440Z,5.00
2019-05-18T13:11:07.115Z,5.00
2019-05-18T13:13:15.322Z,20.72
2019-05-18T13:15:23.919Z,6.97
2019-05-18T13:17:33.209Z,5.67
2019-05-18T13:19:41.159Z,4.87
2019-05-18T13:21:49.197Z,5.12
2019-05-18T13:23:57.179Z,5.67
2019-05-18T13:26:05.526Z,6.25
2019-05-18T13:28:13.499Z,4.90
2019-05-18T13:30:23.968Z,5.80
2019-05-18T13:32:31.829Z,9.03
2019-05-18T13:34:39.745Z,7.55
2019-05-18T13:36:48.100Z,5.15
2019-05-18T13:38:55.993Z,5.40
2019-05-18T13:41:04.538Z,5.37
2019-05-18T13:43:12.514Z,5.35
2019-05-18T13:45:21.029Z,4.95
2019-05-18T13:47:32.040Z,4.87
2019-05-18T13:49:40.322Z,5.65
2019-05-18T13:51:49.194Z,4.95
2019-05-18T13:53:57.138Z,4.95
2019-05-18T13:56:05.431Z,4.90
2019-05-18T13:58:13.414Z,4.87
2019-05-18T14:00:23.562Z,5.20
2019-05-18T14:02:31.545Z,4.67
2019-05-18T14:04:39.615Z,5.10
2019-05-18T14:06:47.536Z,5.55
2019-05-18T14:08:55.500Z,5.08
2019-05-18T14:11:03.971Z,6.42
2019-05-18T14:13:12.368Z,5.45
2019-05-18T14:15:23.025Z,5.25
2019-05-18T14:17:30.212Z,7.85
2019-05-18T14:19:38.124Z,7.67
2019-05-18T14:21:46.235Z,5.58
2019-05-18T14:23:55.492Z,6.08
2019-05-18T14:26:03.476Z,6.55
2019-05-18T14:28:11.429Z,8.75
2019-05-18T14:30:20.657Z,6.10
2019-05-18T14:32:28.567Z,5.40
2019-05-18T14:34:36.518Z,5.62
2019-05-18T14:36:44.557Z,5.12
2019-05-18T14:38:56.713Z,5.33
2019-05-18T14:41:02.644Z,5.87
2019-05-18T14:43:10.667Z,6.22
2019-05-18T14:45:19.466Z,5.85
2019-05-18T14:47:27.682Z,6.53
2019-05-18T14:49:35.999Z,5.83
2019-05-18T14:51:44.248Z,7.05
2019-05-18T14:53:52.632Z,9.70
2019-05-18T14:56:00.808Z,6.42
2019-05-18T14:58:09.618Z,12.43
2019-05-18T15:00:20.686Z,10.32
2019-05-18T15:02:28.659Z,13.83
2019-05-18T15:04:37.592Z,10.78
2019-05-18T15:06:45.484Z,38.42
2019-05-18T15:08:54.368Z,32.55
2019-05-18T15:11:02.809Z,27.62
2019-05-18T15:13:10.846Z,30.40
2019-05-18T15:15:19.046Z,34.85
2019-05-18T15:17:26.973Z,29.63
2019-05-18T15:19:35.129Z,30.57
2019-05-18T15:21:43.124Z,35.85
2019-05-18T15:23:51.069Z,28.85
2019-05-18T15:25:58.939Z,45.73
2019-05-18T15:28:07.101Z,91.80
2019-05-18T15:30:17.209Z,63.28
2019-05-18T15:32:25.629Z,44.33
2019-05-18T15:34:33.592Z,23.20
2019-05-18T15:36:41.610Z,24.77
2019-05-18T15:38:50.179Z,16.75
2019-05-18T15:40:58.436Z,16.90
2019-05-18T15:43:06.460Z,18.90
2019-05-18T15:45:14.722Z,26.25
2019-05-18T15:47:22.853Z,13.80
2019-05-18T15:49:30.763Z,8.98
2019-05-18T15:51:38.654Z,15.90
2019-05-18T15:53:46.644Z,17.27
2019-05-18T15:56:05.236Z,11.05
2019-05-18T15:58:04.314Z,9.88
2019-05-18T16:00:12.829Z,7.83
2019-05-18T16:02:21.286Z,7.67
2019-05-18T16:04:29.490Z,10.90
2019-05-18T16:06:38.528Z,7.70
2019-05-18T16:08:47.423Z,8.55
2019-05-18T16:10:57.361Z,7.55
2019-05-18T16:13:05.366Z,7.60
2019-05-18T16:15:14.737Z,9.70
2019-05-18T16:17:38.096Z,9.70
2019-05-18T16:19:32.274Z,8.43
2019-05-18T16:21:40.353Z,6.97
2019-05-18T16:23:48.342Z,6.87
2019-05-18T16:25:56.222Z,6.72
2019-05-18T16:28:04.206Z,6.62
2019-05-18T16:30:12.754Z,7.35
2019-05-18T16:32:21.049Z,6.90
2019-05-18T16:34:28.987Z,7.50
2019-05-18T16:36:36.886Z,7.55
2019-05-18T16:38:44.885Z,6.83
2019-05-18T16:40:52.896Z,6.37
2019-05-18T16:43:01.767Z,8.70
2019-05-18T16:45:10.730Z,10.58
2019-05-18T16:47:19.902Z,11.63
2019-05-18T16:49:27.886Z,11.73
2019-05-18T16:51:35.880Z,8.70
2019-05-18T16:53:48.141Z,16.93
2019-05-18T16:55:54.687Z,13.28
2019-05-18T16:58:02.902Z,7.05
2019-05-18T17:00:16.231Z,6.67
2019-05-18T17:02:31.674Z,6.47
2019-05-18T17:04:34.484Z,7.70
2019-05-18T17:06:42.498Z,7.97
2019-05-18T17:08:50.481Z,9.00
2019-05-18T17:10:58.478Z,9.33
2019-05-18T17:13:06.870Z,11.78
2019-05-18T17:15:16.876Z,11.03
2019-05-18T17:17:25.133Z,9.90
2019-05-18T17:19:33.051Z,10.90
2019-05-18T17:21:41.052Z,10.28
2019-05-18T17:23:49.025Z,10.95
2019-05-18T17:25:56.967Z,11.00
2019-05-18T17:28:04.997Z,11.25
2019-05-18T17:30:13.367Z,10.45
2019-05-18T17:32:21.289Z,9.50
2019-05-18T17:34:29.249Z,8.45
2019-05-18T17:36:38.213Z,10.03
2019-05-18T17:38:46.269Z,10.30
2019-05-18T17:40:54.496Z,10.18
2019-05-18T17:43:02.499Z,10.00
2019-05-18T17:45:11.900Z,9.43
2019-05-18T17:47:19.803Z,13.62
2019-05-18T17:49:28.072Z,11.80
2019-05-18T17:51:36.387Z,11.20
2019-05-18T17:53:44.824Z,12.07
2019-05-18T17:55:52.820Z,12.95
2019-05-18T17:58:00.835Z,13.58
2019-05-18T18:00:11.173Z,14.87
2019-05-18T18:02:19.063Z,16.95
2019-05-18T18:04:27.095Z,19.55
2019-05-18T18:06:35.460Z,23.92
2019-05-18T18:08:43.736Z,20.02
2019-05-18T18:10:51.723Z,20.92
2019-05-18T18:12:59.926Z,22.17
2019-05-18T18:15:09.298Z,20.57
2019-05-18T18:17:17.905Z,15.05
2019-05-18T18:19:25.893Z,17.65
2019-05-18T18:21:33.806Z,18.98
2019-05-18T18:23:41.719Z,31.00
2019-05-18T18:25:49.678Z,64.47
2019-05-18T18:27:57.612Z,31.25
2019-05-18T18:30:12.104Z,27.20
2019-05-18T18:32:20.471Z,21.35
2019-05-18T18:34:28.705Z,18.45
2019-05-18T18:36:36.636Z,18.65
2019-05-18T18:38:45.072Z,16.73
2019-05-18T18:40:54.316Z,19.32
2019-05-18T18:43:02.333Z,21.52
2019-05-18T18:45:11.283Z,17.55
2019-05-18T18:47:19.236Z,24.05
2019-05-18T18:49:27.290Z,18.40
2019-05-18T18:51:35.332Z,16.82
2019-05-18T18:53:44.192Z,15.68
2019-05-18T18:55:53.107Z,14.73
2019-05-18T18:58:02.491Z,14.18
2019-05-18T19:00:12.789Z,14.93
2019-05-18T19:02:20.900Z,17.25
2019-05-18T19:04:28.894Z,20.05
2019-05-18T19:06:36.954Z,29.23
2019-05-18T19:08:45.116Z,35.28
2019-05-18T19:10:53.073Z,34.65
2019-05-18T19:13:00.984Z,32.28
2019-05-18T19:15:10.613Z,30.05
2019-05-18T19:17:18.755Z,26.87
2019-05-18T19:19:26.958Z,28.55
2019-05-18T19:21:35.093Z,31.35
2019-05-18T19:23:43.077Z,33.98
2019-05-18T19:25:51.959Z,32.05
2019-05-18T19:28:00.098Z,31.27
2019-05-18T19:30:10.334Z,29.75
2019-05-18T19:32:18.280Z,28.32
2019-05-18T19:34:26.404Z,27.87
2019-05-18T19:36:34.322Z,26.93
2019-05-18T19:38:42.677Z,24.65
2019-05-18T19:40:50.711Z,21.42
2019-05-18T19:42:59.650Z,22.45
2019-05-18T19:45:11.441Z,20.48
2019-05-18T19:47:19.392Z,18.92
2019-05-18T19:49:27.393Z,17.57
2019-05-18T19:51:36.430Z,17.23
2019-05-18T19:53:44.479Z,17.30
2019-05-18T19:55:52.375Z,16.32
2019-05-18T19:58:08.515Z,17.05
2019-05-18T20:00:12.997Z,18.92
2019-05-18T20:02:20.957Z,18.37
2019-05-18T20:04:29.140Z,18.30
2019-05-18T20:06:37.460Z,19.98
2019-05-18T20:08:45.553Z,19.40
2019-05-18T20:10:53.952Z,20.23
2019-05-18T20:13:02.049Z,19.75
2019-05-18T20:15:10.788Z,22.32
2019-05-18T20:17:18.709Z,24.20
2019-05-18T20:19:38.553Z,26.70
2019-05-18T20:21:37.402Z,22.87
2019-05-18T20:23:45.306Z,22.95
2019-05-18T20:25:53.248Z,21.23
2019-05-18T20:28:01.235Z,22.77
2019-05-18T20:30:11.827Z,22.32
2019-05-18T20:32:19.833Z,21.25
2019-05-18T20:34:27.889Z,20.12
2019-05-18T20:36:36.054Z,20.10
2019-05-18T20:38:44.576Z,19.77
2019-05-18T20:40:52.559Z,20.57
2019-05-18T20:43:00.562Z,20.40
2019-05-18T20:45:09.590Z,21.35
2019-05-18T20:47:17.560Z,24.32
2019-05-18T20:49:25.548Z,27.85
2019-05-18T20:51:33.490Z,24.95
2019-05-18T20:53:41.469Z,22.22
2019-05-18T20:55:49.534Z,21.48
2019-05-18T20:57:57.544Z,22.07
2019-05-18T21:00:06.550Z,21.17
2019-05-18T21:02:16.148Z,21.35
2019-05-18T21:04:24.171Z,21.33
2019-05-18T21:06:32.070Z,21.80
2019-05-18T21:08:40.192Z,21.82
2019-05-18T21:10:49.211Z,21.80
2019-05-18T21:12:57.108Z,20.82
2019-05-18T21:15:08.236Z,22.87
2019-05-18T21:17:16.704Z,22.00
2019-05-18T21:19:24.699Z,24.35
2019-05-18T21:21:32.599Z,24.63
2019-05-18T21:23:40.584Z,25.08
2019-05-18T21:25:48.478Z,32.80
2019-05-18T21:27:56.770Z,25.30
2019-05-18T21:30:06.693Z,31.30
2019-05-18T21:32:14.595Z,23.80
2019-05-18T21:34:22.482Z,23.62
2019-05-18T21:36:30.399Z,19.85
2019-05-18T21:38:38.292Z,23.65
2019-05-18T21:40:46.328Z,20.85
2019-05-18T21:42:55.270Z,20.92
2019-05-18T21:45:03.442Z,18.80
2019-05-18T21:47:11.741Z,18.07
2019-05-18T21:49:19.889Z,19.57
2019-05-18T21:51:27.947Z,21.55
2019-05-18T21:53:35.936Z,20.37
2019-05-18T21:55:44.191Z,22.35
2019-05-18T21:57:52.330Z,19.90
2019-05-18T22:00:00.736Z,20.32
2019-05-18T22:02:09.867Z,18.80
2019-05-18T22:04:18.060Z,19.12
2019-05-18T22:06:26.063Z,20.00
2019-05-18T22:08:33.994Z,19.27
2019-05-18T22:10:41.882Z,21.68
2019-05-18T22:12:49.883Z,22.60
2019-05-18T22:14:58.032Z,22.05
2019-05-18T22:17:06.419Z,22.25
2019-05-18T22:19:14.313Z,21.48
2019-05-18T22:21:23.257Z,21.27
2019-05-18T22:23:31.256Z,19.23
2019-05-18T22:25:39.167Z,19.05
2019-05-18T22:27:47.357Z,20.97
2019-05-18T22:29:56.721Z,21.85
2019-05-18T22:32:04.677Z,22.40
2019-05-18T22:34:13.004Z,22.58
2019-05-18T22:36:21.028Z,22.80
2019-05-18T22:38:29.384Z,23.47
2019-05-18T22:40:37.454Z,22.77
2019-05-18T22:42:45.823Z,22.35
2019-05-18T22:44:53.713Z,22.30
2019-05-18T22:47:01.746Z,20.82
2019-05-18T22:49:09.722Z,20.75
2019-05-18T22:51:19.342Z,21.17
2019-05-18T22:53:27.368Z,20.40
2019-05-18T22:55:35.766Z,18.92
2019-05-18T22:57:44.049Z,17.73
2019-05-18T22:59:53.012Z,17.70
2019-05-18T23:02:00.977Z,18.67
2019-05-18T23:04:09.479Z,18.00
2019-05-18T23:06:17.423Z,17.70
2019-05-18T23:08:25.455Z,16.85
2019-05-18T23:10:33.444Z,16.42
2019-05-18T23:12:42.472Z,16.73
2019-05-18T23:14:50.397Z,17.52
2019-05-18T23:16:58.287Z,17.67
2019-05-18T23:19:06.707Z,17.15
2019-05-18T23:21:14.600Z,17.95
2019-05-18T23:23:22.686Z,17.23
2019-05-18T23:25:30.712Z,17.40
2019-05-18T23:27:38.598Z,16.55
2019-05-18T23:29:46.492Z,16.25
2019-05-18T23:31:54.497Z,16.62
2019-05-18T23:34:02.465Z,16.97
2019-05-18T23:36:10.821Z,16.42
2019-05-18T23:38:18.841Z,16.55
2019-05-18T23:40:26.820Z,16.97
2019-05-18T23:42:34.778Z,16.77
2019-05-18T23:44:42.903Z,17.55
2019-05-18T23:46:51.071Z,17.57
2019-05-18T23:49:10.073Z,16.62
2019-05-18T23:51:09.633Z,17.50
2019-05-18T23:53:17.528Z,17.48
2019-05-18T23:55:25.656Z,17.17
2019-05-18T23:57:34.762Z,17.67
2019-05-18T23:59:42.637Z,17.80
